createdAt,value
2018-07-28T00:01:34.808Z,100434.67
2018-07-28T00:04:03.654Z,100427.41
2018-07-28T00:06:32.485Z,100425.27
2018-07-28T00:09:01.353Z,100437.14
2018-07-28T00:11:30.207Z,100428.57
2018-07-28T00:13:59.078Z,100432.20
2018-07-28T00:16:27.887Z,100436.18
2018-07-28T00:18:56.745Z,100438.47
2018-07-28T00:21:25.557Z,100443.74
2018-07-28T00:23:54.379Z,100441.13
2018-07-28T00:26:23.233Z,100436.36
2018-07-28T00:28:52.352Z,100433.42
2018-07-28T00:31:21.183Z,100439.18
2018-07-28T00:33:50.002Z,100432.58
2018-07-28T00:36:18.789Z,100436.05
2018-07-28T00:38:47.711Z,100427.64
2018-07-28T00:41:16.596Z,100437.49
2018-07-28T00:43:45.411Z,100434.50
2018-07-28T00:46:14.228Z,100432.20
2018-07-28T00:48:43.046Z,100425.60
2018-07-28T00:51:11.859Z,100422.64
2018-07-28T00:53:40.645Z,100414.92
2018-07-28T00:56:09.500Z,100415.08
2018-07-28T00:58:38.335Z,100408.14
2018-07-28T01:01:07.279Z,100407.83
2018-07-28T01:03:36.124Z,100407.15
2018-07-28T01:06:05.152Z,100397.60
2018-07-28T01:08:33.958Z,100398.10
2018-07-28T01:11:02.797Z,100395.98
2018-07-28T01:13:31.664Z,100405.84
2018-07-28T01:16:00.465Z,100397.78
2018-07-28T01:18:29.266Z,100403.22
2018-07-28T01:20:58.125Z,100402.23
2018-07-28T01:23:26.974Z,100408.42
2018-07-28T01:25:55.813Z,100405.10
2018-07-28T01:28:24.670Z,100403.54
2018-07-28T01:30:53.533Z,100404.69
2018-07-28T01:33:22.330Z,100400.21
2018-07-28T01:35:51.214Z,100403.15
2018-07-28T01:38:20.026Z,100405.61
2018-07-28T01:40:48.827Z,100406.00
2018-07-28T01:43:17.691Z,100397.28
2018-07-28T01:45:46.512Z,100400.72
2018-07-28T01:48:15.354Z,100405.25
2018-07-28T01:50:44.201Z,100402.55
2018-07-28T01:53:12.997Z,100403.31
2018-07-28T01:55:41.835Z,100402.32
2018-07-28T01:58:10.629Z,100400.84
2018-07-28T02:00:39.460Z,100403.49
2018-07-28T02:03:08.299Z,100398.72
2018-07-28T02:05:37.109Z,100400.36
2018-07-28T02:08:06.217Z,100403.13
2018-07-28T02:10:35.032Z,100399.34
2018-07-28T02:13:03.800Z,100393.61
2018-07-28T02:15:32.613Z,100397.04
2018-07-28T02:18:01.441Z,100404.91
2018-07-28T02:20:30.334Z,100402.28
2018-07-28T02:22:59.146Z,100400.80
2018-07-28T02:25:33.054Z,100399.33
2018-07-28T02:28:01.869Z,100398.65
2018-07-28T02:30:30.738Z,100399.66
2018-07-28T02:32:59.530Z,100396.37
2018-07-28T02:35:28.365Z,100400.64
2018-07-28T02:37:57.222Z,100400.14
2018-07-28T02:40:26.106Z,100397.14
2018-07-28T02:42:54.989Z,100401.09
2018-07-28T02:45:23.893Z,100395.69
2018-07-28T02:47:52.765Z,100394.80
2018-07-28T02:50:21.589Z,100404.09
2018-07-28T02:52:50.399Z,100401.52
2018-07-28T02:55:19.236Z,100403.27
2018-07-28T02:57:48.055Z,100400.56
2018-07-28T03:00:17.355Z,100401.05
2018-07-28T03:02:46.273Z,100402.83
2018-07-28T03:05:15.085Z,100405.31
2018-07-28T03:07:43.869Z,100399.53
2018-07-28T03:10:12.692Z,100405.38
2018-07-28T03:12:41.549Z,100406.80
2018-07-28T03:15:30.123Z,100400.48
2018-07-28T03:18:00.088Z,100403.56
2018-07-28T03:20:29.132Z,100408.45
2018-07-28T03:22:58.037Z,100401.39
2018-07-28T03:25:26.981Z,100402.91
2018-07-28T03:27:56.036Z,100404.75
2018-07-28T03:30:25.004Z,100409.65
2018-07-28T03:32:54.317Z,100408.67
2018-07-28T03:35:23.189Z,100404.53
2018-07-28T03:37:52.222Z,100407.04
2018-07-28T03:40:21.018Z,100408.80
2018-07-28T03:42:49.804Z,100414.30
2018-07-28T03:45:18.732Z,100412.51
2018-07-28T03:47:47.644Z,100405.12
2018-07-28T03:50:16.425Z,100399.06
2018-07-28T03:52:45.293Z,100404.00
2018-07-28T03:55:14.173Z,100401.34
2018-07-28T03:57:43.041Z,100412.59
2018-07-28T04:00:13.081Z,100418.22
2018-07-28T04:02:41.933Z,100412.99
2018-07-28T04:05:13.163Z,100410.68
2018-07-28T04:07:41.961Z,100418.23
2018-07-28T04:10:11.097Z,100412.76
2018-07-28T04:12:41.580Z,100420.84
2018-07-28T04:15:13.133Z,100428.38
2018-07-28T04:17:47.812Z,100427.72
2018-07-28T04:20:16.653Z,100431.80
2018-07-28T04:22:45.436Z,100435.67
2018-07-28T04:25:14.437Z,100438.70
2018-07-28T04:27:43.232Z,100435.55
2018-07-28T04:30:12.068Z,100440.84
2018-07-28T04:32:40.976Z,100437.94
2018-07-28T04:35:09.812Z,100436.16
2018-07-28T04:37:39.472Z,100437.80
2018-07-28T04:40:09.616Z,100431.88
2018-07-28T04:42:38.450Z,100430.44
2018-07-28T04:45:07.769Z,100426.83
2018-07-28T04:47:36.740Z,100423.84
2018-07-28T04:50:05.913Z,100427.47
2018-07-28T04:52:34.866Z,100425.32
2018-07-28T04:55:03.855Z,100426.30
2018-07-28T04:57:32.692Z,100426.97
2018-07-28T05:00:01.524Z,100424.50
2018-07-28T05:02:30.369Z,100423.66
2018-07-28T05:04:59.328Z,100432.70
2018-07-28T05:07:28.183Z,100418.39
2018-07-28T05:09:56.951Z,100430.28
2018-07-28T05:12:26.110Z,100431.88
2018-07-28T05:14:54.878Z,100424.72
2018-07-28T05:17:23.740Z,100425.66
2018-07-28T05:19:53.883Z,100396.80
2018-07-28T05:22:22.875Z,100428.95
2018-07-28T05:24:51.687Z,100439.34
2018-07-28T05:27:20.556Z,100426.47
2018-07-28T05:29:49.321Z,100433.24
2018-07-28T05:32:18.104Z,100438.48
2018-07-28T05:34:46.944Z,100439.80
2018-07-28T05:37:16.013Z,100445.42
2018-07-28T05:39:44.796Z,100443.40
2018-07-28T05:42:13.781Z,100444.59
2018-07-28T05:44:43.832Z,100445.84
2018-07-28T05:47:12.596Z,100447.59
2018-07-28T05:49:41.377Z,100448.37
2018-07-28T05:52:10.299Z,100451.28
2018-07-28T05:54:39.090Z,100450.41
2018-07-28T05:57:07.882Z,100443.58
2018-07-28T05:59:36.716Z,100448.42
2018-07-28T06:02:05.623Z,100444.31
2018-07-28T06:04:34.491Z,100448.02
2018-07-28T06:07:03.329Z,100443.18
2018-07-28T06:09:32.152Z,100444.89
2018-07-28T06:12:01.048Z,100445.12
2018-07-28T06:14:31.088Z,100443.03
2018-07-28T06:17:00.197Z,100442.80
2018-07-28T06:19:28.978Z,100441.94
2018-07-28T06:21:59.127Z,100441.06
2018-07-28T06:24:27.945Z,100441.38
2018-07-28T06:26:56.761Z,100437.84
2018-07-28T06:29:25.593Z,100438.36
2018-07-28T06:31:54.535Z,100431.53
2018-07-28T06:34:23.292Z,100435.05
2018-07-28T06:36:52.093Z,100445.99
2018-07-28T06:39:20.982Z,100444.41
2018-07-28T06:41:49.779Z,100447.19
2018-07-28T06:44:18.608Z,100441.80
2018-07-28T06:46:47.408Z,100439.82
2018-07-28T06:49:16.365Z,100440.77
2018-07-28T06:51:45.196Z,100438.03
2018-07-28T06:54:14.469Z,100445.73
2018-07-28T06:56:43.480Z,100445.27
2018-07-28T06:59:12.426Z,100450.13
2018-07-28T07:01:41.211Z,100449.11
2018-07-28T07:04:09.997Z,100451.70
2018-07-28T07:06:40.169Z,100451.75
2018-07-28T07:09:10.624Z,100460.30
2018-07-28T07:11:39.462Z,100451.33
2018-07-28T07:14:08.605Z,100446.12
2018-07-28T07:16:37.464Z,100447.73
2018-07-28T07:19:06.545Z,100447.91
2018-07-28T07:21:35.908Z,100453.48
2018-07-28T07:24:04.780Z,100438.43
2018-07-28T07:26:33.612Z,100446.11
2018-07-28T07:29:03.208Z,100439.80
2018-07-28T07:31:32.105Z,100440.41
2018-07-28T07:34:01.054Z,100442.20
2018-07-28T07:36:31.099Z,100437.43
2018-07-28T07:38:59.871Z,100435.09
2018-07-28T07:41:28.700Z,100432.18
2018-07-28T07:43:57.862Z,100426.41
2018-07-28T07:46:26.638Z,100429.97
2018-07-28T07:48:55.664Z,100428.23
2018-07-28T07:51:25.019Z,100424.91
2018-07-28T07:53:53.943Z,100427.92
2018-07-28T07:56:22.741Z,100423.75
2018-07-28T07:58:51.569Z,100423.97
2018-07-28T08:01:20.341Z,100433.81
2018-07-28T08:03:49.103Z,100422.58
2018-07-28T08:06:17.959Z,100438.22
2018-07-28T08:08:46.783Z,100418.70
2018-07-28T08:11:15.613Z,100433.66
2018-07-28T08:13:44.503Z,100419.06
2018-07-28T08:16:13.511Z,100423.30
2018-07-28T08:21:17.591Z,100416.92
2018-07-28T08:23:46.364Z,100423.16
2018-07-28T08:26:15.207Z,100423.27
2018-07-28T08:28:44.016Z,100415.63
2018-07-28T08:31:12.820Z,100417.58
2018-07-28T08:33:41.655Z,100414.09
2018-07-28T08:36:10.479Z,100417.39
2018-07-28T08:38:39.305Z,100421.16
2018-07-28T08:41:08.132Z,100417.46
2018-07-28T08:43:36.905Z,100408.81
2018-07-28T08:46:07.553Z,100414.05
2018-07-28T08:48:36.324Z,100409.16
2018-07-28T08:51:05.157Z,100409.15
2018-07-28T08:53:33.997Z,100407.13
2018-07-28T08:56:02.817Z,100401.39
2018-07-28T08:58:31.798Z,100396.66
2018-07-28T09:01:00.764Z,100398.22
2018-07-28T09:03:29.563Z,100408.83
2018-07-28T09:05:58.419Z,100390.64
2018-07-28T09:08:27.227Z,100398.95
2018-07-28T09:10:56.099Z,100388.86
2018-07-28T09:13:24.930Z,100387.18
2018-07-28T09:15:53.866Z,100382.53
2018-07-28T09:18:24.001Z,100383.30
2018-07-28T09:20:52.797Z,100385.73
2018-07-28T09:23:21.638Z,100379.27
2018-07-28T09:25:50.543Z,100376.69
2018-07-28T09:28:19.365Z,100377.90
2018-07-28T09:30:48.153Z,100378.80
2018-07-28T09:33:17.038Z,100373.89
2018-07-28T09:35:45.892Z,100373.22
2018-07-28T09:38:14.779Z,100373.63
2018-07-28T09:40:43.669Z,100375.64
2018-07-28T09:43:12.531Z,100372.44
2018-07-28T09:45:41.313Z,100372.96
2018-07-28T09:48:10.179Z,100368.47
2018-07-28T09:50:38.974Z,100380.06
2018-07-28T09:53:07.757Z,100378.61
2018-07-28T09:55:36.600Z,100381.22
2018-07-28T09:58:05.436Z,100373.48
2018-07-28T10:00:39.326Z,100377.02
2018-07-28T10:03:08.318Z,100370.62
2018-07-28T10:05:37.144Z,100360.47
2018-07-28T10:08:06.009Z,100368.41
2018-07-28T10:10:34.907Z,100354.91
2018-07-28T10:13:03.784Z,100351.56
2018-07-28T10:15:32.618Z,100342.50
2018-07-28T10:18:01.576Z,100338.96
2018-07-28T10:20:30.470Z,100330.41
2018-07-28T10:22:59.573Z,100331.11
2018-07-28T10:25:28.331Z,100326.58
2018-07-28T10:27:57.225Z,100320.86
2018-07-28T10:30:26.188Z,100329.83
2018-07-28T10:32:55.133Z,100323.23
2018-07-28T10:35:23.934Z,100326.98
2018-07-28T10:37:52.760Z,100328.69
2018-07-28T10:40:21.668Z,100325.07
2018-07-28T10:42:50.701Z,100328.53
2018-07-28T10:45:19.527Z,100329.26
2018-07-28T10:47:48.314Z,100332.88
2018-07-28T10:50:17.145Z,100328.53
2018-07-28T10:52:46.014Z,100322.56
2018-07-28T10:55:14.817Z,100324.78
2018-07-28T10:57:43.596Z,100323.77
2018-07-28T11:00:12.597Z,100326.30
2018-07-28T11:02:41.389Z,100326.34
2018-07-28T11:05:10.275Z,100315.79
2018-07-28T11:07:39.172Z,100319.65
2018-07-28T11:10:08.741Z,100321.33
2018-07-28T11:12:37.561Z,100322.97
2018-07-28T11:15:08.144Z,100321.92
2018-07-28T11:17:36.971Z,100321.13
2018-07-28T11:20:07.733Z,100312.75
2018-07-28T11:22:36.838Z,100316.42
2018-07-28T11:25:06.852Z,100312.41
2018-07-28T11:27:36.184Z,100305.80
2018-07-28T11:30:06.692Z,100305.82
2018-07-28T11:32:47.069Z,100306.07
2018-07-28T11:35:26.942Z,100300.96
2018-07-28T11:38:34.643Z,100304.91
2018-07-28T11:41:15.882Z,100300.80
2018-07-28T11:43:55.690Z,100285.78
2018-07-28T11:46:24.537Z,100287.61
2018-07-28T11:48:53.364Z,100281.56
2018-07-28T11:51:23.459Z,100273.72
2018-07-28T11:53:52.279Z,100269.98
2018-07-28T11:56:21.079Z,100272.26
2018-07-28T11:58:49.930Z,100274.16
2018-07-28T12:01:18.744Z,100273.69
2018-07-28T12:03:47.544Z,100279.84
2018-07-28T12:06:16.376Z,100270.20
2018-07-28T12:08:46.568Z,100269.75
2018-07-28T12:11:15.450Z,100269.81
2018-07-28T12:13:44.295Z,100263.48
2018-07-28T12:16:13.124Z,100261.88
2018-07-28T12:18:41.941Z,100265.80
2018-07-28T12:21:10.911Z,100258.64
2018-07-28T12:23:39.896Z,100248.75
2018-07-28T12:26:08.731Z,100245.23
2018-07-28T12:28:37.517Z,100246.82
2018-07-28T12:31:07.682Z,100244.29
2018-07-28T12:33:36.514Z,100240.83
2018-07-28T12:36:06.047Z,100238.33
2018-07-28T12:38:36.142Z,100237.12
2018-07-28T12:41:05.089Z,100244.61
2018-07-28T12:43:33.857Z,100240.84
2018-07-28T12:46:04.077Z,100234.42
2018-07-28T12:48:33.243Z,100244.70
2018-07-28T12:51:02.033Z,100239.49
2018-07-28T12:53:32.321Z,100244.58
2018-07-28T12:56:01.194Z,100237.39
2018-07-28T12:58:29.986Z,100238.93
2018-07-28T13:00:58.932Z,100244.63
2018-07-28T13:03:27.831Z,100244.02
2018-07-28T13:05:56.843Z,100242.77
2018-07-28T13:08:25.911Z,100243.05
2018-07-28T13:10:54.755Z,100241.62
2018-07-28T13:13:23.619Z,100240.23
2018-07-28T13:15:52.508Z,100237.80
2018-07-28T13:18:21.323Z,100236.98
2018-07-28T13:20:50.177Z,100238.12
2018-07-28T13:23:19.144Z,100235.03
2018-07-28T13:25:48.016Z,100245.96
2018-07-28T13:28:17.156Z,100235.58
2018-07-28T13:30:46.068Z,100239.93
2018-07-28T13:33:14.924Z,100240.68
2018-07-28T13:35:43.850Z,100239.99
2018-07-28T13:38:12.726Z,100239.30
2018-07-28T13:40:41.587Z,100241.39
2018-07-28T13:43:10.449Z,100242.22
2018-07-28T13:45:39.324Z,100238.48
2018-07-28T13:48:09.387Z,100240.94
2018-07-28T13:50:38.281Z,100245.62
2018-07-28T13:53:07.200Z,100242.03
2018-07-28T13:55:36.017Z,100242.43
2018-07-28T13:58:04.826Z,100239.69
2018-07-28T14:00:33.719Z,100236.27
2018-07-28T14:03:02.583Z,100241.09
2018-07-28T14:05:31.482Z,100245.16
2018-07-28T14:08:00.340Z,100254.24
2018-07-28T14:10:29.198Z,100246.09
2018-07-28T14:12:57.997Z,100254.22
2018-07-28T14:15:26.854Z,100255.33
2018-07-28T14:17:55.713Z,100249.80
2018-07-28T14:20:24.524Z,100246.09
2018-07-28T14:22:53.327Z,100253.23
2018-07-28T14:25:22.140Z,100257.63
2018-07-28T14:27:50.983Z,100253.97
2018-07-28T14:30:19.845Z,100246.46
2018-07-28T14:32:48.711Z,100247.20
2018-07-28T14:35:17.490Z,100251.68
2018-07-28T14:37:46.273Z,100256.63
2018-07-28T14:40:16.396Z,100257.55
2018-07-28T14:42:45.239Z,100255.45
2018-07-28T14:45:14.060Z,100263.25
2018-07-28T14:47:44.188Z,100264.27
2018-07-28T14:50:12.996Z,100261.16
2018-07-28T14:52:41.776Z,100258.03
2018-07-28T14:55:10.670Z,100265.83
2018-07-28T14:57:39.473Z,100265.41
2018-07-28T15:00:08.496Z,100268.28
2018-07-28T15:02:38.766Z,100260.13
2018-07-28T15:05:07.681Z,100264.55
2018-07-28T15:07:36.483Z,100265.03
2018-07-28T15:10:05.424Z,100272.62
2018-07-28T15:12:34.273Z,100268.72
2018-07-28T15:15:03.091Z,100272.48
2018-07-28T15:17:33.163Z,100265.58
2018-07-28T15:20:01.949Z,100265.73
2018-07-28T15:22:30.773Z,100263.98
2018-07-28T15:25:00.992Z,100273.44
2018-07-28T15:27:29.841Z,100272.64
2018-07-28T15:29:58.616Z,100279.22
2018-07-28T15:32:27.448Z,100275.88
2018-07-28T15:34:56.238Z,100281.95
2018-07-28T15:37:25.068Z,100272.45
2018-07-28T15:39:55.405Z,100276.34
2018-07-28T15:42:24.241Z,100278.78
2018-07-28T15:44:53.054Z,100281.55
2018-07-28T15:47:21.898Z,100277.27
2018-07-28T15:49:50.703Z,100284.63
2018-07-28T15:52:19.517Z,100281.96
2018-07-28T15:54:48.376Z,100274.80
2018-07-28T15:57:17.224Z,100273.20
2018-07-28T15:59:46.080Z,100270.53
2018-07-28T16:02:16.222Z,100265.44
2018-07-28T16:04:45.010Z,100270.09
2018-07-28T16:07:13.835Z,100272.62
2018-07-28T16:09:44.124Z,100274.19
2018-07-28T16:12:12.978Z,100280.76
2018-07-28T16:14:41.867Z,100276.23
2018-07-28T16:17:11.947Z,100282.84
2018-07-28T16:19:40.866Z,100275.96
2018-07-28T16:22:09.763Z,100277.33
2018-07-28T16:24:38.656Z,100295.83
2018-07-28T16:27:07.515Z,100302.60
2018-07-28T16:29:36.463Z,100316.75
2018-07-28T16:32:05.348Z,100329.61
2018-07-28T16:34:34.230Z,100328.05
2018-07-28T16:37:03.100Z,100329.36
2018-07-28T16:39:33.286Z,100334.97
2018-07-28T16:42:02.118Z,100345.81
2018-07-28T16:44:30.918Z,100352.13
2018-07-28T16:46:59.792Z,100357.69
2018-07-28T16:49:28.615Z,100356.63
2018-07-28T16:51:57.408Z,100366.84
2018-07-28T16:54:27.484Z,100366.10
2018-07-28T16:56:56.327Z,100372.77
2018-07-28T16:59:25.221Z,100370.27
2018-07-28T17:01:54.071Z,100367.66
2018-07-28T17:04:22.924Z,100367.05
2018-07-28T17:06:51.760Z,100358.25
2018-07-28T17:09:20.579Z,100359.72
2018-07-28T17:11:49.419Z,100367.05
2018-07-28T17:14:18.291Z,100379.25
2018-07-28T17:16:47.133Z,100375.68
2018-07-28T17:19:15.973Z,100370.41
2018-07-28T17:21:44.780Z,100372.95
2018-07-28T17:24:13.699Z,100380.88
2018-07-28T17:26:42.516Z,100378.00
2018-07-28T17:29:11.334Z,100378.73
2018-07-28T17:31:40.279Z,100375.13
2018-07-28T17:34:11.987Z,100381.25
2018-07-28T17:36:50.933Z,100377.36
2018-07-28T17:39:34.158Z,100378.98
2018-07-28T17:42:21.429Z,100375.13
2018-07-28T17:45:01.993Z,100374.91
2018-07-28T17:47:37.001Z,100370.39
2018-07-28T17:50:18.294Z,100371.84
2018-07-28T17:52:51.987Z,100373.08
2018-07-28T17:55:32.625Z,100376.69
2018-07-28T17:58:28.161Z,100378.82
2018-07-28T18:01:12.926Z,100379.20
2018-07-28T18:03:59.631Z,100377.15
2018-07-28T18:06:42.451Z,100373.80
2018-07-28T18:09:21.427Z,100379.80
2018-07-28T18:12:01.585Z,100378.69
2018-07-28T18:14:40.751Z,100311.84
2018-07-28T18:17:12.556Z,100383.13
2018-07-28T18:19:49.618Z,100389.09
2018-07-28T18:22:33.488Z,100391.08
2018-07-28T18:25:15.294Z,100393.78
2018-07-28T18:27:52.089Z,100398.17
2018-07-28T18:30:26.671Z,100389.59
2018-07-28T18:33:02.081Z,100395.28
2018-07-28T18:35:38.945Z,100392.38
2018-07-28T18:38:19.487Z,100396.48
2018-07-28T18:43:50.032Z,100388.53
2018-07-28T18:46:33.511Z,100386.32
2018-07-28T18:54:39.294Z,100390.87
2018-07-28T18:57:22.034Z,100385.11
2018-07-28T19:00:16.565Z,100386.23
2018-07-28T19:02:54.245Z,100394.19
2018-07-28T19:05:30.797Z,100396.71
2018-07-28T19:08:19.363Z,100396.95
2018-07-28T19:11:04.169Z,100398.58
2018-07-28T19:16:34.648Z,100396.02
2018-07-28T19:19:11.852Z,100386.09
2018-07-28T19:21:51.202Z,100390.18
2018-07-28T19:24:33.847Z,100383.48
2018-07-28T19:29:49.517Z,100382.84
2018-07-28T19:32:30.753Z,100387.55
2018-07-28T19:35:19.903Z,100380.30
2018-07-28T19:38:00.042Z,100379.60
2018-07-28T19:41:00.030Z,100376.19
2018-07-28T19:43:48.791Z,100383.30
2018-07-28T19:46:47.878Z,100382.95
2018-07-28T19:49:21.517Z,100376.58
2018-07-28T19:52:13.930Z,100372.91
2018-07-28T19:54:49.499Z,100378.68
2018-07-28T19:57:29.444Z,100380.08
2018-07-28T20:00:18.655Z,100381.22
2018-07-28T20:03:00.584Z,100377.20
2018-07-28T20:05:44.570Z,100379.20
2018-07-28T20:08:22.730Z,100381.18
2018-07-28T20:11:12.400Z,100377.03
2018-07-28T20:13:57.776Z,100383.77
2018-07-28T20:16:42.624Z,100384.56
2018-07-28T20:19:22.477Z,100346.20
2018-07-28T20:22:03.953Z,100388.40
2018-07-28T20:24:39.054Z,100394.34
2018-07-28T20:27:16.186Z,100391.25
2018-07-28T20:29:59.187Z,100389.30
2018-07-28T20:32:50.532Z,100399.42
2018-07-28T20:35:29.398Z,100392.65
2018-07-28T20:38:03.394Z,100393.70
2018-07-28T20:43:27.733Z,100403.16
2018-07-28T20:46:03.736Z,100398.41
2018-07-28T20:48:43.372Z,100405.84
2018-07-28T20:51:31.038Z,100403.36
2018-07-28T20:54:22.358Z,100397.28
2018-07-28T20:57:02.938Z,100402.67
2018-07-28T20:59:43.504Z,100396.55
2018-07-28T21:02:17.664Z,100388.32
2018-07-28T21:05:03.714Z,100383.45
2018-07-28T21:07:41.385Z,100381.73
2018-07-28T21:10:22.360Z,100380.61
2018-07-28T21:12:56.724Z,100370.39
2018-07-28T21:15:30.337Z,100376.28
2018-07-28T21:18:14.803Z,100372.30
2018-07-28T21:20:55.366Z,100367.44
2018-07-28T21:23:33.777Z,100369.01
2018-07-28T21:26:15.188Z,100372.48
2018-07-28T21:28:59.267Z,100379.06
2018-07-28T21:31:48.791Z,100372.41
2018-07-28T21:34:36.193Z,100373.81
2018-07-28T21:37:18.426Z,100378.56
2018-07-28T21:39:55.767Z,100383.12
2018-07-28T21:42:29.889Z,100373.55
2018-07-28T21:50:54.929Z,100293.42
2018-07-28T21:53:26.692Z,100374.14
2018-07-28T21:56:06.403Z,100372.66
2018-07-28T21:58:46.457Z,100376.45
2018-07-28T22:01:25.501Z,100377.86
2018-07-28T22:04:02.201Z,100370.38
2018-07-28T22:06:39.124Z,100372.90
2018-07-28T22:09:33.632Z,100366.48
2018-07-28T22:12:26.607Z,100362.31
2018-07-28T22:15:12.338Z,100356.44
2018-07-28T22:17:50.329Z,100358.63
2018-07-28T22:20:26.222Z,100353.16
2018-07-28T22:23:09.560Z,100331.42
2018-07-28T22:25:54.755Z,100345.80
2018-07-28T22:28:41.575Z,100342.09
2018-07-28T22:34:02.733Z,100335.01
2018-07-28T22:36:50.413Z,100328.31
2018-07-28T22:39:21.154Z,100325.20
2018-07-28T22:41:57.455Z,100233.77
2018-07-28T22:44:29.548Z,100321.08
2018-07-28T22:47:41.668Z,100318.15
2018-07-28T22:50:19.021Z,100316.53
2018-07-28T22:52:55.775Z,100315.55
2018-07-28T22:55:28.697Z,100319.55
2018-07-28T22:57:57.556Z,100315.34
2018-07-28T23:00:26.455Z,100313.02
2018-07-28T23:02:55.353Z,100309.13
2018-07-28T23:05:24.265Z,100319.92
2018-07-28T23:07:53.071Z,100316.45
2018-07-28T23:10:21.930Z,100312.19
2018-07-28T23:12:50.770Z,100311.66
2018-07-28T23:15:19.588Z,100313.58
2018-07-28T23:17:48.672Z,100312.22
2018-07-28T23:20:17.483Z,100308.14
2018-07-28T23:22:46.311Z,100312.31
2018-07-28T23:25:15.157Z,100304.01
2018-07-28T23:27:43.993Z,100305.95
2018-07-28T23:30:12.855Z,100310.70
2018-07-28T23:32:41.692Z,100304.63
2018-07-28T23:35:10.624Z,100313.52
2018-07-28T23:37:39.472Z,100308.19
2018-07-28T23:40:08.648Z,100313.47
2018-07-28T23:42:37.560Z,100312.77
2018-07-28T23:45:06.689Z,100314.64
2018-07-28T23:47:35.551Z,100306.91
2018-07-28T23:50:04.772Z,100311.58
2018-07-28T23:52:33.705Z,100304.30
2018-07-28T23:55:02.551Z,100303.56
2018-07-28T23:57:31.411Z,100282.52
